createdAt,value
2022-08-11T00:02:33.751Z,45.65
2022-08-11T00:05:08.472Z,45.57
2022-08-11T00:07:43.301Z,45.29
2022-08-11T00:10:13.524Z,45.59
2022-08-11T00:12:43.300Z,46.85
2022-08-11T00:15:13.810Z,47.91
2022-08-11T00:17:42.846Z,48.62
2022-08-11T00:20:16.491Z,48.35
2022-08-11T00:22:48.170Z,48.73
2022-08-11T00:25:19.200Z,48.07
2022-08-11T00:27:49.438Z,48.55
2022-08-11T00:30:19.328Z,48.52
2022-08-11T00:32:56.161Z,48.25
2022-08-11T00:35:51.718Z,47.89
2022-08-11T00:38:18.223Z,47.80
2022-08-11T00:40:54.332Z,47.92
2022-08-11T00:43:39.163Z,47.85
2022-08-11T00:46:17.263Z,49.23
2022-08-11T00:48:54.796Z,49.31
2022-08-11T00:52:03.764Z,48.99
2022-08-11T00:54:44.964Z,49.05
2022-08-11T00:57:38.858Z,48.71
2022-08-11T01:00:15.910Z,48.47
2022-08-11T01:03:10.141Z,49.00
2022-08-11T01:06:01.024Z,48.66
2022-08-11T01:09:03.477Z,48.87
2022-08-11T01:11:57.717Z,48.89
2022-08-11T01:14:57.186Z,48.90
2022-08-11T01:18:13.073Z,49.08
2022-08-11T01:21:10.932Z,49.22
2022-08-11T01:24:25.447Z,49.02
2022-08-11T01:27:22.104Z,48.83
2022-08-11T01:30:19.472Z,49.22
2022-08-11T01:33:25.941Z,48.87
2022-08-11T01:36:30.019Z,49.00
2022-08-11T01:39:42.348Z,49.19
2022-08-11T01:43:01.109Z,49.55
2022-08-11T01:45:37.313Z,49.99
2022-08-11T01:48:15.884Z,49.87
2022-08-11T01:51:06.715Z,49.83
2022-08-11T01:53:47.744Z,50.41
2022-08-11T01:56:30.758Z,50.26
2022-08-11T01:59:12.868Z,50.83
2022-08-11T02:01:59.119Z,51.57
2022-08-11T02:04:34.806Z,51.28
2022-08-11T02:07:11.299Z,51.31
2022-08-11T02:09:55.296Z,51.59
2022-08-11T02:12:42.288Z,51.70
2022-08-11T02:15:29.722Z,51.38
2022-08-11T02:18:07.681Z,51.67
2022-08-11T02:21:00.520Z,51.96
2022-08-11T02:24:04.075Z,51.43
2022-08-11T02:26:41.560Z,51.90
2022-08-11T02:29:20.251Z,51.70
2022-08-11T02:32:29.982Z,51.70
2022-08-11T02:35:11.118Z,51.99
2022-08-11T02:37:49.781Z,51.90
2022-08-11T02:40:26.210Z,51.61
2022-08-11T02:43:07.064Z,52.17
2022-08-11T02:45:47.362Z,52.28
2022-08-11T02:48:43.394Z,51.95
2022-08-11T02:51:22.322Z,52.37
2022-08-11T02:53:58.657Z,52.44
2022-08-11T02:56:38.686Z,52.48
2022-08-11T02:59:27.067Z,52.67
2022-08-11T03:02:05.299Z,52.42
2022-08-11T03:04:51.234Z,52.55
2022-08-11T03:07:29.684Z,52.70
2022-08-11T03:10:10.038Z,53.18
2022-08-11T03:13:16.629Z,53.79
2022-08-11T03:16:04.542Z,53.23
2022-08-11T03:18:42.318Z,53.02
2022-08-11T03:21:18.779Z,52.99
2022-08-11T03:23:56.964Z,53.61
2022-08-11T03:26:31.206Z,53.35
2022-08-11T03:29:10.079Z,53.51
2022-08-11T03:31:47.097Z,53.25
2022-08-11T03:34:19.386Z,53.60
2022-08-11T03:37:17.671Z,53.34
2022-08-11T03:40:01.152Z,53.32
2022-08-11T03:42:42.526Z,53.62
2022-08-11T03:45:24.953Z,53.59
2022-08-11T03:48:09.288Z,53.27
2022-08-11T03:50:59.186Z,53.54
2022-08-11T03:53:46.259Z,53.30
2022-08-11T03:56:47.249Z,53.17
2022-08-11T03:59:35.878Z,53.30
2022-08-11T04:02:30.925Z,53.45
2022-08-11T04:05:40.034Z,53.30
2022-08-11T04:08:46.288Z,53.37
2022-08-11T04:11:50.524Z,53.46
2022-08-11T04:15:00.896Z,53.42
2022-08-11T04:18:02.963Z,53.59
2022-08-11T04:20:50.877Z,53.24
2022-08-11T04:24:13.262Z,53.49
2022-08-11T04:26:56.131Z,53.08
2022-08-11T04:30:03.286Z,53.09
2022-08-11T04:33:04.994Z,53.29
2022-08-11T04:35:50.926Z,53.41
2022-08-11T04:38:46.573Z,53.61
2022-08-11T04:42:15.477Z,53.80
2022-08-11T04:45:15.128Z,54.05
2022-08-11T04:48:21.899Z,54.35
2022-08-11T04:51:34.036Z,54.26
2022-08-11T04:54:28.828Z,54.06
2022-08-11T04:57:24.040Z,54.14
2022-08-11T05:00:24.619Z,54.50
2022-08-11T05:03:41.974Z,54.52
2022-08-11T05:06:30.573Z,54.47
2022-08-11T05:09:32.159Z,54.15
2022-08-11T05:12:35.484Z,54.27
2022-08-11T05:15:22.911Z,54.00
2022-08-11T05:18:19.854Z,53.83
2022-08-11T05:21:09.742Z,53.69
2022-08-11T05:24:00.951Z,53.62
2022-08-11T05:26:56.054Z,54.02
2022-08-11T05:29:58.644Z,55.42
2022-08-11T05:32:56.852Z,55.60
2022-08-11T05:36:02.247Z,55.78
2022-08-11T05:38:43.148Z,55.84
2022-08-11T05:41:31.358Z,55.25
2022-08-11T05:44:20.839Z,54.99
2022-08-11T05:47:09.988Z,54.79
2022-08-11T05:49:57.837Z,54.54
2022-08-11T05:52:47.067Z,54.23
2022-08-11T05:55:35.571Z,54.39
2022-08-11T05:58:20.924Z,54.95
2022-08-11T06:00:49.645Z,54.79
2022-08-11T06:03:28.997Z,55.26
2022-08-11T06:05:59.212Z,54.86
2022-08-11T06:08:32.028Z,54.81
2022-08-11T06:11:06.491Z,54.58
2022-08-11T06:13:35.839Z,54.64
2022-08-11T06:16:06.990Z,53.70
2022-08-11T06:18:37.915Z,53.61
2022-08-11T06:21:12.235Z,52.94
2022-08-11T06:23:42.617Z,52.74
2022-08-11T06:26:11.720Z,52.66
2022-08-11T06:28:41.582Z,52.84
2022-08-11T06:31:15.085Z,52.97
2022-08-11T06:33:56.693Z,52.61
2022-08-11T06:36:34.323Z,52.78
2022-08-11T06:39:13.060Z,52.98
2022-08-11T06:41:50.376Z,53.21
2022-08-11T06:44:25.338Z,54.01
2022-08-11T06:46:56.080Z,53.39
2022-08-11T06:49:53.671Z,54.02
2022-08-11T06:52:31.993Z,53.94
2022-08-11T06:55:56.230Z,52.97
2022-08-11T06:58:14.820Z,52.81
2022-08-11T07:00:43.539Z,51.84
2022-08-11T07:03:14.582Z,50.83
2022-08-11T07:05:50.198Z,50.35
2022-08-11T07:09:25.288Z,51.18
2022-08-11T07:12:33.017Z,50.76
2022-08-11T07:15:22.600Z,50.23
2022-08-11T07:18:15.517Z,50.86
2022-08-11T07:21:03.559Z,51.19
2022-08-11T07:23:53.108Z,51.43
2022-08-11T07:26:43.215Z,50.40
2022-08-11T07:29:14.220Z,50.44
2022-08-11T07:31:50.149Z,49.86
2022-08-11T07:34:23.823Z,50.57
2022-08-11T07:36:55.966Z,50.59
2022-08-11T07:39:26.991Z,50.01
2022-08-11T07:41:57.543Z,48.96
2022-08-11T07:44:34.324Z,48.95
2022-08-11T07:47:20.410Z,48.63
2022-08-11T07:50:09.471Z,48.83
2022-08-11T07:52:40.816Z,48.97
2022-08-11T07:55:14.292Z,48.24
2022-08-11T07:58:16.964Z,48.03
2022-08-11T08:01:10.006Z,48.24
2022-08-11T08:04:03.145Z,47.64
2022-08-11T08:06:51.555Z,47.80
2022-08-11T08:09:40.613Z,47.37
2022-08-11T08:12:27.658Z,47.07
2022-08-11T08:15:14.618Z,46.99
2022-08-11T08:18:08.265Z,46.62
2022-08-11T08:20:45.439Z,46.92
2022-08-11T08:23:14.160Z,46.31
2022-08-11T08:25:46.649Z,46.38
2022-08-11T08:28:17.603Z,46.84
2022-08-11T08:30:48.311Z,46.58
2022-08-11T08:33:20.532Z,46.30
2022-08-11T08:35:54.424Z,46.71
2022-08-11T08:38:24.450Z,46.73
2022-08-11T08:40:56.569Z,46.29
2022-08-11T08:43:25.677Z,46.12
2022-08-11T08:45:57.307Z,45.56
2022-08-11T08:48:27.514Z,45.47
2022-08-11T08:51:15.701Z,45.61
2022-08-11T08:53:52.460Z,45.04
2022-08-11T08:56:29.376Z,44.99
2022-08-11T08:59:02.147Z,44.68
2022-08-11T09:01:32.292Z,44.53
2022-08-11T09:04:05.332Z,44.23
2022-08-11T09:06:40.966Z,43.99
2022-08-11T09:09:12.199Z,44.27
2022-08-11T09:11:53.187Z,44.16
2022-08-11T09:14:23.674Z,43.82
2022-08-11T09:16:53.100Z,43.36
2022-08-11T09:19:22.658Z,43.44
2022-08-11T09:22:13.435Z,42.78
2022-08-11T09:24:59.625Z,42.48
2022-08-11T09:27:29.266Z,42.72
2022-08-11T09:29:57.680Z,42.58
2022-08-11T09:32:26.690Z,42.05
2022-08-11T09:34:55.705Z,41.67
2022-08-11T09:37:55.729Z,41.79
2022-08-11T09:40:32.594Z,41.42
2022-08-11T09:43:23.463Z,40.99
2022-08-11T09:45:52.974Z,40.99
2022-08-11T09:48:22.089Z,40.85
2022-08-11T09:50:51.711Z,39.98
2022-08-11T09:53:36.146Z,40.02
2022-08-11T09:56:30.316Z,40.07
2022-08-11T09:59:00.429Z,39.89
2022-08-11T10:01:35.803Z,38.74
2022-08-11T10:04:09.890Z,38.75
2022-08-11T10:06:57.989Z,38.67
2022-08-11T10:09:26.909Z,38.49
2022-08-11T10:11:59.186Z,38.65
2022-08-11T10:14:48.831Z,38.18
2022-08-11T10:17:20.493Z,38.28
2022-08-11T10:20:05.060Z,38.67
2022-08-11T10:22:53.122Z,38.19
2022-08-11T10:25:39.785Z,37.97
2022-08-11T10:28:28.982Z,38.22
2022-08-11T10:31:36.300Z,37.27
2022-08-11T10:34:16.648Z,37.06
2022-08-11T10:36:48.352Z,37.11
2022-08-11T10:39:19.939Z,36.82
2022-08-11T10:42:35.069Z,36.20
2022-08-11T10:45:29.179Z,35.83
2022-08-11T10:47:58.686Z,35.52
2022-08-11T10:50:44.827Z,34.90
2022-08-11T10:53:32.832Z,34.87
2022-08-11T10:56:18.712Z,34.87
2022-08-11T10:58:49.242Z,34.72
2022-08-11T11:01:23.667Z,34.80
2022-08-11T11:03:58.689Z,32.77
2022-08-11T11:06:32.850Z,32.12
2022-08-11T11:09:05.349Z,31.83
2022-08-11T11:11:55.912Z,32.03
2022-08-11T11:14:50.829Z,32.50
2022-08-11T11:17:50.894Z,32.85
2022-08-11T11:20:36.976Z,33.07
2022-08-11T11:23:11.646Z,32.83
2022-08-11T11:26:14.907Z,32.54
2022-08-11T11:29:12.227Z,33.09
2022-08-11T11:32:06.533Z,32.78
2022-08-11T11:34:59.455Z,32.89
2022-08-11T11:37:33.673Z,32.67
2022-08-11T11:40:02.879Z,33.31
2022-08-11T11:42:31.463Z,32.99
2022-08-11T11:45:01.408Z,32.76
2022-08-11T11:47:31.325Z,32.46
2022-08-11T11:49:59.827Z,33.22
2022-08-11T11:52:29.891Z,32.67
2022-08-11T11:55:00.510Z,32.44
2022-08-11T11:57:59.102Z,32.61
2022-08-11T12:00:45.359Z,31.88
2022-08-11T12:03:14.633Z,31.82
2022-08-11T12:05:44.276Z,31.24
2022-08-11T12:08:17.303Z,30.53
2022-08-11T12:10:48.035Z,30.25
2022-08-11T12:13:34.837Z,29.63
2022-08-11T12:16:34.769Z,29.12
2022-08-11T12:18:56.570Z,28.66
2022-08-11T12:21:25.421Z,28.94
2022-08-11T12:24:14.418Z,29.17
2022-08-11T12:27:15.325Z,28.94
2022-08-11T12:29:50.107Z,28.75
2022-08-11T12:32:24.612Z,28.62
2022-08-11T12:34:53.681Z,28.61
2022-08-11T12:37:43.799Z,28.48
2022-08-11T12:40:49.396Z,28.38
2022-08-11T12:43:41.239Z,28.70
2022-08-11T12:46:11.189Z,29.11
2022-08-11T12:49:03.585Z,28.47
2022-08-11T12:52:11.064Z,27.95
2022-08-11T12:54:59.049Z,28.56
2022-08-11T12:57:50.487Z,28.63
2022-08-11T13:00:38.238Z,29.29
2022-08-11T13:03:26.866Z,29.41
2022-08-11T13:05:56.740Z,29.18
2022-08-11T13:08:26.094Z,27.97
2022-08-11T13:11:13.233Z,27.74
2022-08-11T13:13:52.523Z,27.73
2022-08-11T13:16:27.735Z,27.85
2022-08-11T13:18:57.385Z,27.82
2022-08-11T13:21:25.964Z,27.40
2022-08-11T13:24:01.143Z,28.13
2022-08-11T13:26:45.037Z,27.45
2022-08-11T13:29:21.118Z,27.02
2022-08-11T13:31:49.657Z,26.75
2022-08-11T13:34:19.984Z,26.88
2022-08-11T13:36:50.350Z,27.95
2022-08-11T13:39:19.479Z,27.35
2022-08-11T13:41:50.465Z,27.23
2022-08-11T13:44:25.353Z,26.89
2022-08-11T13:46:55.346Z,27.41
2022-08-11T13:49:24.379Z,27.08
2022-08-11T13:51:54.032Z,27.02
2022-08-11T13:54:25.103Z,25.57
2022-08-11T13:56:56.920Z,26.29
2022-08-11T13:59:29.831Z,26.18
2022-08-11T14:02:21.495Z,26.56
2022-08-11T14:04:57.252Z,26.21
2022-08-11T14:07:28.617Z,26.30
2022-08-11T14:09:59.657Z,25.98
2022-08-11T14:12:47.860Z,25.54
2022-08-11T14:15:22.677Z,25.22
2022-08-11T14:17:55.792Z,25.12
2022-08-11T14:20:38.997Z,26.12
2022-08-11T14:23:11.008Z,26.35
2022-08-11T14:26:03.094Z,26.18
2022-08-11T14:28:40.044Z,26.18
2022-08-11T14:31:12.574Z,25.32
2022-08-11T14:34:00.751Z,24.86
2022-08-11T14:36:32.962Z,25.93
2022-08-11T14:39:04.340Z,25.33
2022-08-11T14:42:10.277Z,24.58
2022-08-11T14:44:58.088Z,24.66
2022-08-11T14:47:30.191Z,24.62
2022-08-11T14:50:10.866Z,23.39
2022-08-11T14:52:44.395Z,24.85
2022-08-11T14:55:31.717Z,24.59
2022-08-11T14:58:01.791Z,24.89
2022-08-11T15:00:31.007Z,22.52
2022-08-11T15:03:12.986Z,22.68
2022-08-11T15:05:56.145Z,21.80
2022-08-11T15:08:42.203Z,22.36
2022-08-11T15:11:32.449Z,22.24
2022-08-11T15:14:02.391Z,22.18
2022-08-11T15:16:48.312Z,21.63
2022-08-11T15:19:21.303Z,22.41
2022-08-11T15:22:07.635Z,22.57
2022-08-11T15:24:36.739Z,22.10
2022-08-11T15:27:27.992Z,21.45
2022-08-11T15:30:32.940Z,21.88
2022-08-11T15:33:23.310Z,21.34
2022-08-11T15:36:12.791Z,21.45
2022-08-11T15:38:45.611Z,21.71
2022-08-11T15:41:35.889Z,22.28
2022-08-11T15:45:00.615Z,21.88
2022-08-11T15:47:19.153Z,21.86
2022-08-11T15:50:10.528Z,21.66
2022-08-11T15:52:49.230Z,21.67
2022-08-11T15:55:18.271Z,22.28
2022-08-11T15:58:08.030Z,22.08
2022-08-11T16:01:02.677Z,22.45
2022-08-11T16:04:06.532Z,22.03
2022-08-11T16:06:42.828Z,22.70
2022-08-11T16:09:21.145Z,22.43
2022-08-11T16:11:50.664Z,22.45
2022-08-11T16:14:38.568Z,21.85
2022-08-11T16:17:11.157Z,21.96
2022-08-11T16:19:42.123Z,22.63
2022-08-11T16:22:12.949Z,22.24
2022-08-11T16:27:03.158Z,22.27
2022-08-11T16:27:38.472Z,22.39
2022-08-11T16:30:08.398Z,22.31
2022-08-11T16:32:40.729Z,22.41
2022-08-11T16:35:29.502Z,22.00
2022-08-11T16:38:24.868Z,22.44
2022-08-11T16:40:56.256Z,22.33
2022-08-11T16:43:46.571Z,22.19
2022-08-11T16:46:35.104Z,22.94
2022-08-11T16:49:05.600Z,23.05
2022-08-11T16:51:34.461Z,23.04
2022-08-11T16:54:04.696Z,23.02
2022-08-11T16:56:38.711Z,23.98
2022-08-11T16:59:16.238Z,24.39
2022-08-11T17:01:53.624Z,23.88
2022-08-11T17:04:50.225Z,24.82
2022-08-11T17:07:42.386Z,24.79
2022-08-11T17:10:51.777Z,24.71
2022-08-11T17:13:29.210Z,25.75
2022-08-11T17:16:08.802Z,25.84
2022-08-11T17:18:44.275Z,26.11
2022-08-11T17:21:24.718Z,26.09
2022-08-11T17:23:55.227Z,25.73
2022-08-11T17:26:27.935Z,25.66
2022-08-11T17:29:02.145Z,26.58
2022-08-11T17:31:49.167Z,25.71
2022-08-11T17:34:35.216Z,24.95
2022-08-11T17:37:05.750Z,24.93
2022-08-11T17:39:35.682Z,24.80
2022-08-11T17:42:22.043Z,25.06
2022-08-11T17:45:10.092Z,24.82
2022-08-11T17:47:56.826Z,24.48
2022-08-11T17:50:25.401Z,25.50
2022-08-11T17:53:12.541Z,25.93
2022-08-11T17:55:59.404Z,26.09
2022-08-11T17:58:45.978Z,25.57
2022-08-11T18:01:17.058Z,25.04
2022-08-11T18:03:56.247Z,24.82
2022-08-11T18:06:33.615Z,24.89
2022-08-11T18:09:22.991Z,24.69
2022-08-11T18:12:12.815Z,26.45
2022-08-11T18:15:02.499Z,26.35
2022-08-11T18:17:49.840Z,26.32
2022-08-11T18:20:36.813Z,26.29
2022-08-11T18:23:40.701Z,26.52
2022-08-11T18:26:35.746Z,26.75
2022-08-11T18:29:22.461Z,26.57
2022-08-11T18:32:11.769Z,27.03
2022-08-11T18:35:11.270Z,27.04
2022-08-11T18:38:04.622Z,27.32
2022-08-11T18:40:51.956Z,27.80
2022-08-11T18:43:43.387Z,28.63
2022-08-11T18:46:31.326Z,28.85
2022-08-11T18:49:21.085Z,28.60
2022-08-11T18:52:12.295Z,28.99
2022-08-11T18:55:01.584Z,29.25
2022-08-11T18:57:53.844Z,29.58
2022-08-11T19:00:42.025Z,29.72
2022-08-11T19:03:29.840Z,29.78
2022-08-11T19:06:39.378Z,30.07
2022-08-11T19:09:28.958Z,30.31
2022-08-11T19:12:15.738Z,30.83
2022-08-11T19:15:03.202Z,30.69
2022-08-11T19:17:51.646Z,30.87
2022-08-11T19:20:41.297Z,31.03
2022-08-11T19:23:29.875Z,31.16
2022-08-11T19:26:18.849Z,31.22
2022-08-11T19:29:07.406Z,31.65
2022-08-11T19:31:53.733Z,31.58
2022-08-11T19:34:41.740Z,31.89
2022-08-11T19:37:28.820Z,32.02
2022-08-11T19:40:18.169Z,32.33
2022-08-11T19:43:18.802Z,32.29
2022-08-11T19:46:15.562Z,33.24
2022-08-11T19:49:02.922Z,33.00
2022-08-11T19:51:53.781Z,33.08
2022-08-11T19:54:42.164Z,33.28
2022-08-11T19:57:29.035Z,33.35
2022-08-11T20:00:17.501Z,33.42
2022-08-11T20:03:08.699Z,32.77
2022-08-11T20:06:00.030Z,32.66
2022-08-11T20:08:47.180Z,32.27
2022-08-11T20:11:34.756Z,32.60
2022-08-11T20:14:21.560Z,32.63
2022-08-11T20:17:10.601Z,32.51
2022-08-11T20:22:50.278Z,32.60
2022-08-11T20:25:37.727Z,33.23
2022-08-11T20:28:24.253Z,33.55
2022-08-11T20:31:11.981Z,33.59
2022-08-11T20:34:01.168Z,33.38
2022-08-11T20:36:54.526Z,34.08
2022-08-11T20:39:43.554Z,34.31
2022-08-11T20:42:31.203Z,34.52
2022-08-11T20:45:23.767Z,34.92
2022-08-11T20:48:14.752Z,34.82
2022-08-11T20:54:12.833Z,35.89
2022-08-11T20:56:59.661Z,36.34
2022-08-11T20:59:56.745Z,36.42
2022-08-11T21:02:44.786Z,37.12
2022-08-11T21:06:09.148Z,36.89
2022-08-11T21:08:39.093Z,37.51
2022-08-11T21:11:29.300Z,37.19
2022-08-11T21:14:18.271Z,37.74
2022-08-11T21:17:27.970Z,37.41
2022-08-11T21:20:20.708Z,37.41
2022-08-11T21:23:16.094Z,37.72
2022-08-11T21:26:14.227Z,37.41
2022-08-11T21:29:01.261Z,38.19
2022-08-11T21:31:50.349Z,37.93
2022-08-11T21:34:38.843Z,38.37
2022-08-11T21:37:26.907Z,38.40
2022-08-11T21:40:17.521Z,38.11
2022-08-11T21:43:06.579Z,38.87
2022-08-11T21:45:55.272Z,38.36
2022-08-11T21:48:42.430Z,38.63
2022-08-11T21:51:28.596Z,39.65
2022-08-11T21:54:16.244Z,39.24
2022-08-11T21:57:02.687Z,39.53
2022-08-11T22:00:00.287Z,39.60
2022-08-11T22:02:48.970Z,39.30
2022-08-11T22:05:39.732Z,38.59
2022-08-11T22:08:25.839Z,39.23
2022-08-11T22:11:12.060Z,39.00
2022-08-11T22:14:01.190Z,39.76
2022-08-11T22:16:53.586Z,40.21
2022-08-11T22:19:40.859Z,40.67
2022-08-11T22:22:29.369Z,40.72
2022-08-11T22:25:18.419Z,40.70
2022-08-11T22:28:04.587Z,40.44
2022-08-11T22:30:50.891Z,40.31
2022-08-11T22:33:42.120Z,39.99
2022-08-11T22:36:46.048Z,40.04
2022-08-11T22:39:35.146Z,40.05
2022-08-11T22:42:30.152Z,40.86
2022-08-11T22:45:20.067Z,41.89
2022-08-11T22:48:07.720Z,42.28
2022-08-11T22:50:55.920Z,42.65
2022-08-11T22:53:57.395Z,42.48
2022-08-11T22:56:44.217Z,42.18
2022-08-11T22:59:31.785Z,42.13
2022-08-11T23:02:17.615Z,42.07
2022-08-11T23:05:03.574Z,42.22
2022-08-11T23:07:52.056Z,42.56
2022-08-11T23:10:39.223Z,42.39
2022-08-11T23:13:25.720Z,42.21
2022-08-11T23:16:13.095Z,42.33
2022-08-11T23:18:59.464Z,42.40
2022-08-11T23:21:46.505Z,42.79
2022-08-11T23:24:34.422Z,43.07
2022-08-11T23:27:23.013Z,43.30
2022-08-11T23:30:11.444Z,43.22
2022-08-11T23:32:58.439Z,43.31
2022-08-11T23:35:54.877Z,43.24
2022-08-11T23:38:45.238Z,43.02
2022-08-11T23:41:33.917Z,43.42
2022-08-11T23:44:20.223Z,42.91
2022-08-11T23:47:08.156Z,42.90
2022-08-11T23:49:55.099Z,43.11
2022-08-11T23:52:41.330Z,43.22
2022-08-11T23:55:27.961Z,43.24
2022-08-11T23:58:14.963Z,43.07
